SAS679 LEPA-EKCH
Flight info
| Callsign | SAS679 |
|---|---|
| Flight time | 2h 45m |
| Altitude | 38000 |
| Route | MEROS N853 LUMAS DCT MAXIR DCT LUSOL DCT BODRU DCT OKTET DCT IRMAR DCT KINES DCT VANAS DCT ESOKO DCT GODRA/N0433F370 DCT LOKTA DCT TEDGO DCT HAREM DCT LOHRE DCT BERXO DCT MAKEL N851 GESKA Z711 MONAK |
| Aircraft | A20N/M-SDE2E3FGHIRWXY/LB1 |
Departure
| Time | 2026-04-25 20:33 |
|---|---|
| Airport | Palma de Mallorca Airport (LEPA) |
Arrival
| Time | 2026-04-25 23:18 |
|---|---|
| Airport | Copenhagen Kastrup Airport (EKCH) |
| Time | Latitude | Longitude | Altitude | Speed | Heading |
|---|---|---|---|---|---|
| 2026-04-25 19:05 | 39.54539 | 2.73276 | 38 ft | 0 kts | 345° |
| 2026-04-25 20:20 | 39.54536 | 2.73278 | 11 ft | 1 kts | 345° |
| 2026-04-25 20:20 | 39.54529 | 2.73280 | 36 ft | 1 kts | 345° |
| 2026-04-25 20:21 | 39.54522 | 2.73282 | 35 ft | 1 kts | 345° |
| 2026-04-25 20:21 | 39.54515 | 2.73285 | 35 ft | 1 kts | 345° |
| 2026-04-25 20:21 | 39.54509 | 2.73287 | 35 ft | 1 kts | 345° |
| 2026-04-25 20:21 | 39.54502 | 2.73289 | 36 ft | 1 kts | 350° |
| 2026-04-25 20:22 | 39.54495 | 2.73291 | 37 ft | 1 kts | 5° |
| 2026-04-25 20:22 | 39.54493 | 2.73291 | 37 ft | 1 kts | 10° |
| 2026-04-25 20:22 | 39.54482 | 2.73286 | 35 ft | 1 kts | 34° |
| 2026-04-25 20:22 | 39.54476 | 2.73281 | 38 ft | 1 kts | 49° |
| 2026-04-25 20:23 | 39.54475 | 2.73280 | 38 ft | 1 kts | 57° |
| 2026-04-25 20:23 | 39.54477 | 2.73285 | 38 ft | 0 kts | 57° |
| 2026-04-25 20:25 | 39.54482 | 2.73296 | 36 ft | 3 kts | 58° |
| 2026-04-25 20:25 | 39.54499 | 2.73332 | 38 ft | 6 kts | 59° |
| 2026-04-25 20:25 | 39.54526 | 2.73390 | 36 ft | 9 kts | 58° |
| 2026-04-25 20:26 | 39.54563 | 2.73467 | 38 ft | 11 kts | 58° |
| 2026-04-25 20:26 | 39.54610 | 2.73558 | 38 ft | 13 kts | 56° |
| 2026-04-25 20:26 | 39.54659 | 2.73669 | 37 ft | 15 kts | 64° |
| 2026-04-25 20:26 | 39.54715 | 2.73791 | 36 ft | 17 kts | 58° |
| 2026-04-25 20:27 | 39.54780 | 2.73923 | 38 ft | 17 kts | 58° |
| 2026-04-25 20:27 | 39.54869 | 2.73981 | 38 ft | 17 kts | 332° |
| 2026-04-25 20:27 | 39.54938 | 2.73984 | 38 ft | 11 kts | 49° |
| 2026-04-25 20:27 | 39.55004 | 2.73985 | 38 ft | 11 kts | 329° |
| 2026-04-25 20:28 | 39.55078 | 2.73927 | 38 ft | 14 kts | 328° |
| 2026-04-25 20:28 | 39.55164 | 2.73860 | 38 ft | 15 kts | 328° |
| 2026-04-25 20:28 | 39.55261 | 2.73782 | 38 ft | 17 kts | 328° |
| 2026-04-25 20:28 | 39.55368 | 2.73697 | 38 ft | 19 kts | 328° |
| 2026-04-25 20:29 | 39.55484 | 2.73607 | 38 ft | 18 kts | 329° |
| 2026-04-25 20:29 | 39.55556 | 2.73551 | 38 ft | 11 kts | 329° |
| 2026-04-25 20:29 | 39.55622 | 2.73506 | 38 ft | 11 kts | 345° |
| 2026-04-25 20:29 | 39.55680 | 2.73556 | 38 ft | 12 kts | 56° |
| 2026-04-25 20:30 | 39.55726 | 2.73653 | 37 ft | 14 kts | 59° |
| 2026-04-25 20:30 | 39.55779 | 2.73766 | 38 ft | 16 kts | 59° |
| 2026-04-25 20:30 | 39.55838 | 2.73893 | 38 ft | 17 kts | 58° |
| 2026-04-25 20:30 | 39.55906 | 2.74031 | 38 ft | 19 kts | 58° |
| 2026-04-25 20:31 | 39.55976 | 2.74182 | 38 ft | 20 kts | 59° |
| 2026-04-25 20:31 | 39.56086 | 2.74299 | 37 ft | 20 kts | 28° |
| 2026-04-25 20:31 | 39.56159 | 2.74346 | 38 ft | 10 kts | 15° |
| 2026-04-25 20:31 | 39.56224 | 2.74310 | 38 ft | 12 kts | 302° |
| 2026-04-25 20:32 | 39.56197 | 2.74203 | 38 ft | 16 kts | 238° |
| 2026-04-25 20:32 | 39.56094 | 2.73987 | 38 ft | 56 kts | 238° |
| 2026-04-25 20:32 | 39.55769 | 2.73303 | 38 ft | 120 kts | 238° |
| 2026-04-25 20:32 | 39.55248 | 2.72196 | 121 ft | 158 kts | 239° |
| 2026-04-25 20:33 | 39.54682 | 2.71048 | 851 ft | 150 kts | 236° |
| 2026-04-25 20:33 | 39.54090 | 2.69886 | 1383 ft | 158 kts | 236° |
| 2026-04-25 20:33 | 39.53477 | 2.68662 | 1917 ft | 168 kts | 237° |
| 2026-04-25 20:33 | 39.53269 | 2.68245 | 2043 ft | 174 kts | 237° |
| 2026-04-25 20:34 | 39.52077 | 2.65835 | 2683 ft | 209 kts | 237° |
| 2026-04-25 20:34 | 39.51258 | 2.64177 | 3143 ft | 225 kts | 237° |
| 2026-04-25 20:34 | 39.50401 | 2.62438 | 3842 ft | 230 kts | 237° |
| 2026-04-25 20:34 | 39.49472 | 2.60738 | 4586 ft | 237 kts | 223° |
| 2026-04-25 20:35 | 39.48080 | 2.59454 | 5062 ft | 256 kts | 207° |
| 2026-04-25 20:35 | 39.46424 | 2.58389 | 5556 ft | 274 kts | 204° |
| 2026-04-25 20:35 | 39.44688 | 2.57316 | 6341 ft | 279 kts | 205° |
| 2026-04-25 20:35 | 39.42902 | 2.56263 | 7135 ft | 283 kts | 194° |
| 2026-04-25 20:36 | 39.40957 | 2.56096 | 7946 ft | 283 kts | 168° |
| 2026-04-25 20:36 | 39.39154 | 2.57053 | 8742 ft | 282 kts | 141° |
| 2026-04-25 20:36 | 39.37848 | 2.58874 | 9568 ft | 281 kts | 123° |
| 2026-04-25 20:36 | 39.36772 | 2.61000 | 10366 ft | 285 kts | 122° |
| 2026-04-25 20:37 | 39.35577 | 2.63156 | 10722 ft | 306 kts | 127° |
| 2026-04-25 20:37 | 39.34142 | 2.65321 | 10950 ft | 328 kts | 131° |
| 2026-04-25 20:37 | 39.32520 | 2.67474 | 11479 ft | 338 kts | 134° |
| 2026-04-25 20:37 | 39.30823 | 2.69596 | 12225 ft | 341 kts | 135° |
| 2026-04-25 20:38 | 39.29088 | 2.71723 | 12951 ft | 345 kts | 135° |
| 2026-04-25 20:38 | 39.27417 | 2.73964 | 13675 ft | 348 kts | 124° |
| 2026-04-25 20:38 | 39.26343 | 2.76763 | 14316 ft | 351 kts | 109° |
| 2026-04-25 20:38 | 39.25614 | 2.79779 | 14978 ft | 353 kts | 105° |
| 2026-04-25 20:39 | 39.24975 | 2.82848 | 15623 ft | 356 kts | 101° |
| 2026-04-25 20:39 | 39.24885 | 2.86039 | 16239 ft | 359 kts | 81° |
| 2026-04-25 20:39 | 39.25645 | 2.89112 | 16856 ft | 363 kts | 63° |
| 2026-04-25 20:39 | 39.26054 | 2.90035 | 17055 ft | 365 kts | 58° |
| 2026-04-25 20:40 | 39.28433 | 2.94576 | 18096 ft | 370 kts | 57° |
| 2026-04-25 20:40 | 39.29829 | 2.97398 | 18681 ft | 373 kts | 59° |
| 2026-04-25 20:40 | 39.31183 | 3.00268 | 19229 ft | 375 kts | 59° |
| 2026-04-25 20:40 | 39.32519 | 3.03173 | 19769 ft | 378 kts | 60° |
| 2026-04-25 20:41 | 39.33858 | 3.06118 | 20308 ft | 381 kts | 60° |
| 2026-04-25 20:41 | 39.35201 | 3.09079 | 20840 ft | 383 kts | 60° |
| 2026-04-25 20:41 | 39.36556 | 3.12067 | 21359 ft | 386 kts | 60° |
| 2026-04-25 20:41 | 39.37922 | 3.15073 | 21889 ft | 389 kts | 59° |
| 2026-04-25 20:42 | 39.38831 | 3.17074 | 22248 ft | 391 kts | 59° |
| 2026-04-25 20:42 | 39.40671 | 3.21116 | 22905 ft | 395 kts | 59° |
| 2026-04-25 20:42 | 39.42072 | 3.24193 | 23411 ft | 398 kts | 59° |
| 2026-04-25 20:42 | 39.43486 | 3.27291 | 23884 ft | 401 kts | 59° |
| 2026-04-25 20:43 | 39.44916 | 3.30401 | 24284 ft | 404 kts | 59° |
| 2026-04-25 20:43 | 39.45874 | 3.32477 | 24549 ft | 406 kts | 59° |
| 2026-04-25 20:43 | 39.47333 | 3.35638 | 24943 ft | 409 kts | 59° |
| 2026-04-25 20:43 | 39.49271 | 3.39846 | 25477 ft | 412 kts | 59° |
| 2026-04-25 20:44 | 39.50264 | 3.42006 | 25731 ft | 414 kts | 59° |
| 2026-04-25 20:44 | 39.51744 | 3.45228 | 26091 ft | 417 kts | 59° |
| 2026-04-25 20:44 | 39.53210 | 3.48426 | 26466 ft | 420 kts | 59° |
| 2026-04-25 20:44 | 39.54706 | 3.51692 | 26835 ft | 422 kts | 59° |
| 2026-04-25 20:45 | 39.56210 | 3.54982 | 27192 ft | 425 kts | 59° |
| 2026-04-25 20:45 | 39.57721 | 3.58288 | 27541 ft | 427 kts | 59° |
| 2026-04-25 20:45 | 39.59240 | 3.61614 | 27870 ft | 430 kts | 59° |
| 2026-04-25 20:45 | 39.60769 | 3.64967 | 28214 ft | 432 kts | 59° |
| 2026-04-25 20:46 | 39.62283 | 3.68290 | 28543 ft | 434 kts | 59° |
| 2026-04-25 20:46 | 39.63826 | 3.71679 | 28850 ft | 436 kts | 59° |
| 2026-04-25 20:46 | 39.65373 | 3.75083 | 29139 ft | 439 kts | 59° |
| 2026-04-25 20:46 | 39.66930 | 3.78511 | 29449 ft | 441 kts | 59° |
| 2026-04-25 20:47 | 39.68489 | 3.81948 | 29748 ft | 443 kts | 59° |
| 2026-04-25 20:47 | 39.70058 | 3.85409 | 30029 ft | 445 kts | 59° |
| 2026-04-25 20:47 | 39.71633 | 3.88889 | 30303 ft | 447 kts | 59° |
| 2026-04-25 20:47 | 39.73215 | 3.92388 | 30557 ft | 449 kts | 59° |
| 2026-04-25 20:48 | 39.74801 | 3.95900 | 30819 ft | 451 kts | 59° |
| 2026-04-25 20:48 | 39.76368 | 3.99374 | 31070 ft | 453 kts | 59° |
| 2026-04-25 20:48 | 39.77964 | 4.02916 | 31340 ft | 454 kts | 59° |
| 2026-04-25 20:48 | 39.79559 | 4.06459 | 31674 ft | 453 kts | 59° |
| 2026-04-25 20:49 | 39.81150 | 4.09998 | 32009 ft | 453 kts | 59° |
| 2026-04-25 20:49 | 39.82742 | 4.13541 | 32327 ft | 452 kts | 59° |
| 2026-04-25 20:49 | 39.84544 | 4.16885 | 32635 ft | 451 kts | 47° |
| 2026-04-25 20:49 | 39.86835 | 4.19657 | 32926 ft | 449 kts | 36° |
| 2026-04-25 20:50 | 39.89480 | 4.21717 | 33193 ft | 448 kts | 24° |
| 2026-04-25 20:50 | 39.92427 | 4.23039 | 33469 ft | 447 kts | 12° |
| 2026-04-25 20:50 | 39.95494 | 4.23770 | 33756 ft | 447 kts | 9° |
| 2026-04-25 20:50 | 39.98553 | 4.24479 | 34039 ft | 446 kts | 10° |
| 2026-04-25 20:51 | 40.01615 | 4.25199 | 34297 ft | 446 kts | 10° |
| 2026-04-25 20:51 | 40.04667 | 4.25919 | 34530 ft | 445 kts | 10° |
| 2026-04-25 20:51 | 40.07718 | 4.26639 | 34755 ft | 445 kts | 10° |
| 2026-04-25 20:51 | 40.10728 | 4.27349 | 34973 ft | 444 kts | 10° |
| 2026-04-25 20:52 | 40.13774 | 4.28067 | 35180 ft | 444 kts | 10° |
| 2026-04-25 20:52 | 40.15829 | 4.28552 | 35311 ft | 444 kts | 10° |
| 2026-04-25 20:52 | 40.19856 | 4.29502 | 35577 ft | 444 kts | 10° |
| 2026-04-25 20:52 | 40.22889 | 4.30219 | 35774 ft | 443 kts | 10° |
| 2026-04-25 20:53 | 40.25930 | 4.30939 | 35962 ft | 443 kts | 10° |
| 2026-04-25 20:53 | 40.28962 | 4.31657 | 36152 ft | 442 kts | 10° |
| 2026-04-25 20:53 | 40.31990 | 4.32375 | 36328 ft | 442 kts | 9° |
| 2026-04-25 20:53 | 40.35021 | 4.33094 | 36509 ft | 442 kts | 9° |
| 2026-04-25 20:54 | 40.38053 | 4.33814 | 36674 ft | 442 kts | 9° |
| 2026-04-25 20:54 | 40.41077 | 4.34532 | 36823 ft | 442 kts | 9° |
| 2026-04-25 20:54 | 40.44069 | 4.35244 | 36969 ft | 441 kts | 9° |
| 2026-04-25 20:54 | 40.47097 | 4.35965 | 37121 ft | 441 kts | 9° |
| 2026-04-25 20:55 | 40.50120 | 4.36685 | 37268 ft | 441 kts | 9° |
| 2026-04-25 20:55 | 40.53146 | 4.37407 | 37406 ft | 441 kts | 9° |
| 2026-04-25 20:55 | 40.56127 | 4.38118 | 37536 ft | 441 kts | 9° |
| 2026-04-25 20:55 | 40.59181 | 4.38848 | 37676 ft | 440 kts | 9° |
| 2026-04-25 20:56 | 40.62160 | 4.39561 | 37801 ft | 440 kts | 9° |
| 2026-04-25 20:56 | 40.65176 | 4.40283 | 37911 ft | 440 kts | 9° |
| 2026-04-25 20:56 | 40.68192 | 4.41006 | 38033 ft | 440 kts | 9° |
| 2026-04-25 20:56 | 40.71222 | 4.41732 | 38125 ft | 440 kts | 9° |
| 2026-04-25 20:57 | 40.77248 | 4.43180 | 38147 ft | 439 kts | 9° |
| 2026-04-25 20:57 | 40.83262 | 4.44627 | 38148 ft | 439 kts | 9° |
| 2026-04-25 20:58 | 40.89241 | 4.46068 | 38149 ft | 439 kts | 9° |
| 2026-04-25 20:58 | 40.95264 | 4.47523 | 38143 ft | 439 kts | 9° |
| 2026-04-25 20:59 | 41.01285 | 4.48979 | 38150 ft | 440 kts | 9° |
| 2026-04-25 20:59 | 41.07310 | 4.50439 | 38150 ft | 440 kts | 9° |
| 2026-04-25 21:00 | 41.11308 | 4.51411 | 38142 ft | 440 kts | 9° |
| 2026-04-25 21:01 | 41.22353 | 4.54106 | 38150 ft | 441 kts | 9° |
| 2026-04-25 21:01 | 41.28385 | 4.55582 | 38145 ft | 441 kts | 9° |
| 2026-04-25 21:02 | 41.34427 | 4.57063 | 38147 ft | 441 kts | 9° |
| 2026-04-25 21:02 | 41.40466 | 4.58545 | 38143 ft | 441 kts | 9° |
| 2026-04-25 21:03 | 41.46515 | 4.60033 | 38144 ft | 441 kts | 9° |
| 2026-04-25 21:03 | 41.52420 | 4.62043 | 38138 ft | 443 kts | 24° |
| 2026-04-25 21:04 | 41.57855 | 4.65998 | 38125 ft | 444 kts | 28° |
| 2026-04-25 21:04 | 41.63259 | 4.70011 | 38127 ft | 444 kts | 27° |
| 2026-04-25 21:05 | 41.68639 | 4.73982 | 38126 ft | 444 kts | 27° |
| 2026-04-25 21:05 | 41.74076 | 4.77995 | 38130 ft | 445 kts | 27° |
| 2026-04-25 21:06 | 41.79504 | 4.82008 | 38139 ft | 445 kts | 27° |
| 2026-04-25 21:06 | 41.84887 | 4.85997 | 38141 ft | 445 kts | 27° |
| 2026-04-25 21:07 | 41.90322 | 4.90033 | 38136 ft | 445 kts | 27° |
| 2026-04-25 21:07 | 41.95749 | 4.94070 | 38138 ft | 445 kts | 27° |
| 2026-04-25 21:08 | 42.01119 | 4.98072 | 38136 ft | 443 kts | 27° |
| 2026-04-25 21:08 | 42.06522 | 5.02108 | 38132 ft | 444 kts | 27° |
| 2026-04-25 21:09 | 42.14633 | 5.08183 | 38132 ft | 444 kts | 27° |
| 2026-04-25 21:09 | 42.20037 | 5.12238 | 38126 ft | 444 kts | 27° |
| 2026-04-25 21:10 | 42.25402 | 5.16273 | 38119 ft | 444 kts | 27° |
| 2026-04-25 21:10 | 42.30801 | 5.20341 | 38114 ft | 443 kts | 27° |
| 2026-04-25 21:11 | 42.36188 | 5.24403 | 38111 ft | 443 kts | 26° |
| 2026-04-25 21:11 | 42.41727 | 5.28022 | 38110 ft | 442 kts | 22° |
| 2026-04-25 21:12 | 42.47331 | 5.31448 | 38109 ft | 441 kts | 22° |
| 2026-04-25 21:12 | 42.51986 | 5.34289 | 38108 ft | 441 kts | 22° |
| 2026-04-25 21:13 | 42.58510 | 5.38273 | 38102 ft | 442 kts | 22° |
| 2026-04-25 21:13 | 42.63880 | 5.42311 | 38102 ft | 444 kts | 39° |
| 2026-04-25 21:14 | 42.68451 | 5.47978 | 38100 ft | 444 kts | 37° |
| 2026-04-25 21:14 | 42.73518 | 5.52753 | 38104 ft | 442 kts | 30° |
| 2026-04-25 21:15 | 42.78852 | 5.56946 | 38107 ft | 443 kts | 28° |
| 2026-04-25 21:15 | 42.84199 | 5.61030 | 38109 ft | 443 kts | 28° |
| 2026-04-25 21:16 | 42.89577 | 5.65159 | 38110 ft | 444 kts | 28° |
| 2026-04-25 21:16 | 42.94956 | 5.69309 | 38116 ft | 444 kts | 28° |
| 2026-04-25 21:17 | 43.00340 | 5.73473 | 38118 ft | 445 kts | 28° |
| 2026-04-25 21:17 | 43.05736 | 5.77654 | 38116 ft | 445 kts | 28° |
| 2026-04-25 21:18 | 43.11131 | 5.81844 | 38105 ft | 444 kts | 28° |
| 2026-04-25 21:18 | 43.16472 | 5.86000 | 38097 ft | 444 kts | 28° |
| 2026-04-25 21:19 | 43.21845 | 5.90188 | 38093 ft | 445 kts | 28° |
| 2026-04-25 21:19 | 43.27225 | 5.94391 | 38093 ft | 445 kts | 28° |
| 2026-04-25 21:20 | 43.30825 | 5.97209 | 38097 ft | 444 kts | 28° |
| 2026-04-25 21:20 | 43.38127 | 6.02387 | 38095 ft | 443 kts | 18° |
| 2026-04-25 21:21 | 43.44034 | 6.04415 | 38100 ft | 440 kts | 5° |
| 2026-04-25 21:21 | 43.50127 | 6.05088 | 38102 ft | 439 kts | 2° |
| 2026-04-25 21:22 | 43.56235 | 6.05723 | 38105 ft | 440 kts | 2° |
| 2026-04-25 21:22 | 43.62356 | 6.06350 | 38101 ft | 441 kts | 2° |
| 2026-04-25 21:23 | 43.68498 | 6.06971 | 38103 ft | 441 kts | 2° |
| 2026-04-25 21:23 | 43.74573 | 6.07870 | 38105 ft | 443 kts | 9° |
| 2026-04-25 21:24 | 43.80501 | 6.10293 | 38099 ft | 446 kts | 20° |
| 2026-04-25 21:24 | 43.86115 | 6.13991 | 38105 ft | 447 kts | 24° |
| 2026-04-25 21:25 | 43.91713 | 6.17776 | 38107 ft | 447 kts | 24° |
| 2026-04-25 21:25 | 43.97278 | 6.21563 | 38103 ft | 448 kts | 24° |
| 2026-04-25 21:26 | 44.02860 | 6.25384 | 38093 ft | 446 kts | 24° |
| 2026-04-25 21:26 | 44.08430 | 6.29207 | 38093 ft | 447 kts | 24° |
| 2026-04-25 21:27 | 44.14021 | 6.33053 | 38102 ft | 447 kts | 24° |
| 2026-04-25 21:27 | 44.19561 | 6.36871 | 38100 ft | 447 kts | 24° |
| 2026-04-25 21:28 | 44.25137 | 6.40722 | 38092 ft | 447 kts | 24° |
| 2026-04-25 21:28 | 44.30712 | 6.44579 | 38096 ft | 447 kts | 24° |
| 2026-04-25 21:29 | 44.36287 | 6.48444 | 38100 ft | 447 kts | 24° |
| 2026-04-25 21:29 | 44.41859 | 6.52315 | 38101 ft | 447 kts | 24° |
| 2026-04-25 21:30 | 44.47401 | 6.56174 | 38103 ft | 447 kts | 25° |
| 2026-04-25 21:30 | 44.52040 | 6.59412 | 38107 ft | 447 kts | 25° |
| 2026-04-25 21:31 | 44.57611 | 6.63307 | 38114 ft | 447 kts | 24° |
| 2026-04-25 21:31 | 44.63191 | 6.67219 | 38110 ft | 447 kts | 25° |
| 2026-04-25 21:32 | 44.68764 | 6.71132 | 38117 ft | 447 kts | 25° |
| 2026-04-25 21:32 | 44.74295 | 6.75023 | 38120 ft | 447 kts | 24° |
| 2026-04-25 21:33 | 44.80116 | 6.77844 | 38124 ft | 441 kts | 9° |
| 2026-04-25 21:33 | 44.86135 | 6.79590 | 38123 ft | 441 kts | 9° |
| 2026-04-25 21:34 | 44.92147 | 6.81356 | 38116 ft | 441 kts | 9° |
| 2026-04-25 21:34 | 44.98169 | 6.83118 | 38124 ft | 441 kts | 9° |
| 2026-04-25 21:35 | 45.04178 | 6.84875 | 38128 ft | 441 kts | 9° |
| 2026-04-25 21:35 | 45.10148 | 6.86624 | 38130 ft | 439 kts | 9° |
| 2026-04-25 21:36 | 45.16133 | 6.88383 | 38126 ft | 438 kts | 9° |
| 2026-04-25 21:36 | 45.22130 | 6.90148 | 38161 ft | 442 kts | 9° |
| 2026-04-25 21:37 | 45.27123 | 6.91620 | 38164 ft | 440 kts | 9° |
| 2026-04-25 21:37 | 45.34143 | 6.93697 | 38162 ft | 441 kts | 9° |
| 2026-04-25 21:38 | 45.40151 | 6.95477 | 38160 ft | 441 kts | 9° |
| 2026-04-25 21:38 | 45.46118 | 6.97249 | 38155 ft | 440 kts | 9° |
| 2026-04-25 21:39 | 45.52136 | 6.99040 | 38167 ft | 441 kts | 9° |
| 2026-04-25 21:39 | 45.58154 | 7.00836 | 38163 ft | 441 kts | 9° |
| 2026-04-25 21:40 | 45.64157 | 7.02630 | 38168 ft | 441 kts | 9° |
| 2026-04-25 21:40 | 45.70121 | 7.04416 | 38175 ft | 441 kts | 9° |
| 2026-04-25 21:41 | 45.76133 | 7.06222 | 38181 ft | 441 kts | 9° |
| 2026-04-25 21:41 | 45.82145 | 7.08031 | 38174 ft | 441 kts | 9° |
| 2026-04-25 21:42 | 45.88029 | 7.10622 | 38173 ft | 443 kts | 20° |
| 2026-04-25 21:42 | 45.93511 | 7.14625 | 38182 ft | 447 kts | 28° |
| 2026-04-25 21:43 | 45.98872 | 7.19144 | 38180 ft | 446 kts | 28° |
| 2026-04-25 21:43 | 46.04232 | 7.23651 | 38180 ft | 446 kts | 28° |
| 2026-04-25 21:44 | 46.09578 | 7.28182 | 38176 ft | 445 kts | 28° |
| 2026-04-25 21:45 | 46.17593 | 7.35006 | 38184 ft | 446 kts | 28° |
| 2026-04-25 21:45 | 46.22922 | 7.39558 | 38187 ft | 445 kts | 28° |
| 2026-04-25 21:46 | 46.28254 | 7.44121 | 38194 ft | 445 kts | 28° |
| 2026-04-25 21:46 | 46.33566 | 7.48678 | 38190 ft | 445 kts | 28° |
| 2026-04-25 21:47 | 46.38855 | 7.53224 | 38200 ft | 445 kts | 28° |
| 2026-04-25 21:47 | 46.44180 | 7.57812 | 38211 ft | 445 kts | 28° |
| 2026-04-25 21:48 | 46.49489 | 7.62399 | 38177 ft | 443 kts | 28° |
| 2026-04-25 21:48 | 46.54787 | 7.66987 | 38147 ft | 443 kts | 28° |
| 2026-04-25 21:49 | 46.60092 | 7.71589 | 38168 ft | 444 kts | 28° |
| 2026-04-25 21:49 | 46.65340 | 7.76328 | 38154 ft | 444 kts | 29° |
| 2026-04-25 21:50 | 46.70538 | 7.81074 | 38155 ft | 443 kts | 29° |
| 2026-04-25 21:50 | 46.75776 | 7.85843 | 38152 ft | 443 kts | 29° |
| 2026-04-25 21:51 | 46.81014 | 7.90617 | 38156 ft | 444 kts | 29° |
| 2026-04-25 21:51 | 46.86259 | 7.95407 | 38158 ft | 444 kts | 29° |
| 2026-04-25 21:52 | 46.91447 | 8.00158 | 38155 ft | 442 kts | 29° |
| 2026-04-25 21:52 | 46.96665 | 8.04947 | 38158 ft | 443 kts | 29° |
| 2026-04-25 21:53 | 47.01859 | 8.09725 | 38157 ft | 442 kts | 29° |
| 2026-04-25 21:53 | 47.07074 | 8.14533 | 38157 ft | 442 kts | 29° |
| 2026-04-25 21:54 | 47.12239 | 8.19306 | 38158 ft | 443 kts | 29° |
| 2026-04-25 21:54 | 47.17469 | 8.24151 | 38159 ft | 442 kts | 29° |
| 2026-04-25 21:55 | 47.22682 | 8.28991 | 38158 ft | 442 kts | 29° |
| 2026-04-25 21:55 | 47.27883 | 8.33831 | 38158 ft | 442 kts | 29° |
| 2026-04-25 21:56 | 47.33090 | 8.38689 | 38179 ft | 442 kts | 29° |
| 2026-04-25 21:56 | 47.38259 | 8.43522 | 38186 ft | 442 kts | 29° |
| 2026-04-25 21:57 | 47.43459 | 8.48396 | 38188 ft | 442 kts | 29° |
| 2026-04-25 21:57 | 47.48658 | 8.53280 | 38189 ft | 442 kts | 29° |
| 2026-04-25 21:58 | 47.53848 | 8.58168 | 38191 ft | 442 kts | 29° |
| 2026-04-25 21:58 | 47.59038 | 8.63069 | 38184 ft | 442 kts | 29° |
| 2026-04-25 21:59 | 47.64196 | 8.67949 | 38181 ft | 442 kts | 29° |
| 2026-04-25 21:59 | 47.69353 | 8.72840 | 38173 ft | 442 kts | 29° |
| 2026-04-25 22:00 | 47.77120 | 8.80229 | 38168 ft | 441 kts | 29° |
| 2026-04-25 22:00 | 47.82292 | 8.85164 | 38171 ft | 441 kts | 29° |
| 2026-04-25 22:01 | 47.87458 | 8.90106 | 38164 ft | 441 kts | 29° |
| 2026-04-25 22:01 | 47.91758 | 8.94228 | 38164 ft | 441 kts | 29° |
| 2026-04-25 22:02 | 47.97735 | 8.99971 | 38164 ft | 441 kts | 29° |
| 2026-04-25 22:02 | 48.02872 | 9.04920 | 38159 ft | 440 kts | 29° |
| 2026-04-25 22:03 | 48.08022 | 9.09893 | 38165 ft | 440 kts | 29° |
| 2026-04-25 22:03 | 48.13204 | 9.14782 | 38160 ft | 438 kts | 24° |
| 2026-04-25 22:04 | 48.18788 | 9.18127 | 38158 ft | 433 kts | 11° |
| 2026-04-25 22:04 | 48.24689 | 9.19594 | 38149 ft | 429 kts | 3° |
| 2026-04-25 22:05 | 48.30627 | 9.20606 | 38151 ft | 429 kts | 3° |
| 2026-04-25 22:05 | 48.36572 | 9.21624 | 38161 ft | 431 kts | 3° |
| 2026-04-25 22:06 | 48.42514 | 9.22633 | 38147 ft | 432 kts | 3° |
| 2026-04-25 22:06 | 48.48478 | 9.23645 | 38151 ft | 430 kts | 3° |
| 2026-04-25 22:07 | 48.53433 | 9.24487 | 38153 ft | 430 kts | 3° |
| 2026-04-25 22:07 | 48.60405 | 9.25674 | 38159 ft | 431 kts | 3° |
| 2026-04-25 22:08 | 48.66357 | 9.26640 | 38156 ft | 430 kts | 2° |
| 2026-04-25 22:08 | 48.72281 | 9.27523 | 38161 ft | 431 kts | 2° |
| 2026-04-25 22:09 | 48.78263 | 9.28428 | 38157 ft | 431 kts | 2° |
| 2026-04-25 22:09 | 48.84233 | 9.29345 | 38155 ft | 429 kts | 2° |
| 2026-04-25 22:10 | 48.90139 | 9.30253 | 38146 ft | 430 kts | 2° |
| 2026-04-25 22:10 | 48.96064 | 9.31167 | 37821 ft | 425 kts | 2° |
| 2026-04-25 22:11 | 48.99003 | 9.31622 | 37428 ft | 421 kts | 2° |
| 2026-04-25 22:11 | 49.01929 | 9.32074 | 37324 ft | 425 kts | 2° |
| 2026-04-25 22:11 | 49.04904 | 9.32531 | 37218 ft | 430 kts | 2° |
| 2026-04-25 22:11 | 49.07894 | 9.32993 | 37148 ft | 431 kts | 2° |
| 2026-04-25 22:12 | 49.13810 | 9.33913 | 37148 ft | 430 kts | 2° |
| 2026-04-25 22:12 | 49.17806 | 9.34535 | 37149 ft | 431 kts | 2° |
| 2026-04-25 22:13 | 49.25750 | 9.35773 | 37151 ft | 431 kts | 2° |
| 2026-04-25 22:13 | 49.31717 | 9.36707 | 37154 ft | 431 kts | 2° |
| 2026-04-25 22:14 | 49.37650 | 9.37639 | 37146 ft | 430 kts | 2° |
| 2026-04-25 22:14 | 49.43607 | 9.38575 | 37148 ft | 430 kts | 2° |
| 2026-04-25 22:15 | 49.49552 | 9.39512 | 37145 ft | 429 kts | 2° |
| 2026-04-25 22:16 | 49.58483 | 9.40923 | 37145 ft | 429 kts | 2° |
| 2026-04-25 22:16 | 49.64396 | 9.41859 | 37154 ft | 430 kts | 2° |
| 2026-04-25 22:17 | 49.70360 | 9.43206 | 37405 ft | 434 kts | 6° |
| 2026-04-25 22:17 | 49.73327 | 9.44059 | 37590 ft | 434 kts | 6° |
| 2026-04-25 22:17 | 49.76298 | 9.44915 | 37758 ft | 433 kts | 6° |
| 2026-04-25 22:17 | 49.79268 | 9.45770 | 37951 ft | 433 kts | 6° |
| 2026-04-25 22:18 | 49.82227 | 9.46621 | 38115 ft | 432 kts | 6° |
| 2026-04-25 22:18 | 49.88102 | 9.48314 | 38154 ft | 431 kts | 6° |
| 2026-04-25 22:19 | 49.93042 | 9.49740 | 38156 ft | 431 kts | 6° |
| 2026-04-25 22:19 | 49.99901 | 9.51724 | 38154 ft | 431 kts | 6° |
| 2026-04-25 22:20 | 50.04805 | 9.53148 | 38151 ft | 430 kts | 6° |
| 2026-04-25 22:20 | 50.10696 | 9.54860 | 38151 ft | 430 kts | 6° |
| 2026-04-25 22:21 | 50.16579 | 9.56576 | 38150 ft | 429 kts | 6° |
| 2026-04-25 22:21 | 50.22419 | 9.58282 | 38147 ft | 429 kts | 6° |
| 2026-04-25 22:22 | 50.28272 | 9.60196 | 38144 ft | 432 kts | 13° |
| 2026-04-25 22:22 | 50.34021 | 9.63000 | 38147 ft | 433 kts | 13° |
| 2026-04-25 22:23 | 50.39770 | 9.65812 | 38151 ft | 433 kts | 12° |
| 2026-04-25 22:23 | 50.45525 | 9.68622 | 38148 ft | 433 kts | 12° |
| 2026-04-25 22:24 | 50.51286 | 9.71438 | 38149 ft | 433 kts | 12° |
| 2026-04-25 22:24 | 50.57004 | 9.74241 | 38152 ft | 433 kts | 12° |
| 2026-04-25 22:25 | 50.62776 | 9.77080 | 38153 ft | 433 kts | 12° |
| 2026-04-25 22:25 | 50.68536 | 9.79921 | 38155 ft | 433 kts | 12° |
| 2026-04-25 22:26 | 50.74294 | 9.82768 | 38148 ft | 433 kts | 12° |
| 2026-04-25 22:26 | 50.80049 | 9.85621 | 38149 ft | 433 kts | 12° |
| 2026-04-25 22:27 | 50.85776 | 9.88468 | 38149 ft | 433 kts | 12° |
| 2026-04-25 22:27 | 50.91529 | 9.91335 | 38151 ft | 433 kts | 12° |
| 2026-04-25 22:28 | 50.97288 | 9.94211 | 38146 ft | 433 kts | 13° |
| 2026-04-25 22:28 | 51.03034 | 9.97090 | 38143 ft | 433 kts | 13° |
| 2026-04-25 22:29 | 51.08779 | 9.99976 | 38141 ft | 433 kts | 13° |
| 2026-04-25 22:29 | 51.14532 | 10.02873 | 38139 ft | 433 kts | 13° |
| 2026-04-25 22:30 | 51.23137 | 10.07219 | 38144 ft | 435 kts | 13° |
| 2026-04-25 22:30 | 51.27936 | 10.09652 | 38152 ft | 435 kts | 13° |
| 2026-04-25 22:31 | 51.34684 | 10.13082 | 38153 ft | 435 kts | 13° |
| 2026-04-25 22:31 | 51.40451 | 10.16020 | 38155 ft | 435 kts | 13° |
| 2026-04-25 22:32 | 51.46187 | 10.18950 | 38153 ft | 435 kts | 13° |
| 2026-04-25 22:32 | 51.51949 | 10.21901 | 38152 ft | 435 kts | 13° |
| 2026-04-25 22:33 | 51.57716 | 10.24863 | 38151 ft | 435 kts | 13° |
| 2026-04-25 22:33 | 51.63443 | 10.27813 | 38154 ft | 435 kts | 13° |
| 2026-04-25 22:34 | 51.69213 | 10.30792 | 38148 ft | 435 kts | 13° |
| 2026-04-25 22:34 | 51.74977 | 10.33776 | 38149 ft | 435 kts | 13° |
| 2026-04-25 22:35 | 51.80754 | 10.36775 | 38153 ft | 435 kts | 12° |
| 2026-04-25 22:35 | 51.86523 | 10.39777 | 38153 ft | 436 kts | 12° |
| 2026-04-25 22:36 | 51.92304 | 10.42794 | 38159 ft | 436 kts | 12° |
| 2026-04-25 22:36 | 51.98089 | 10.45822 | 38152 ft | 436 kts | 12° |
| 2026-04-25 22:37 | 52.03871 | 10.48857 | 38161 ft | 437 kts | 12° |
| 2026-04-25 22:37 | 52.09618 | 10.51881 | 38159 ft | 437 kts | 12° |
| 2026-04-25 22:38 | 52.15401 | 10.54932 | 38154 ft | 437 kts | 12° |
| 2026-04-25 22:38 | 52.21188 | 10.57994 | 38155 ft | 437 kts | 12° |
| 2026-04-25 22:39 | 52.26967 | 10.61060 | 38152 ft | 437 kts | 12° |
| 2026-04-25 22:39 | 52.32750 | 10.64136 | 38161 ft | 437 kts | 12° |
| 2026-04-25 22:40 | 52.38478 | 10.67192 | 38159 ft | 437 kts | 12° |
| 2026-04-25 22:40 | 52.44243 | 10.70276 | 38164 ft | 436 kts | 12° |
| 2026-04-25 22:41 | 52.49982 | 10.73355 | 38154 ft | 436 kts | 12° |
| 2026-04-25 22:41 | 52.55755 | 10.76460 | 38149 ft | 436 kts | 12° |
| 2026-04-25 22:42 | 52.61501 | 10.79559 | 38145 ft | 436 kts | 12° |
| 2026-04-25 22:42 | 52.67262 | 10.82675 | 38145 ft | 436 kts | 12° |
| 2026-04-25 22:43 | 52.73024 | 10.85799 | 38141 ft | 435 kts | 12° |
| 2026-04-25 22:43 | 52.78778 | 10.88929 | 38137 ft | 435 kts | 12° |
| 2026-04-25 22:44 | 52.84523 | 10.92063 | 38135 ft | 435 kts | 12° |
| 2026-04-25 22:44 | 52.90274 | 10.95208 | 38134 ft | 434 kts | 12° |
| 2026-04-25 22:45 | 52.95978 | 10.98336 | 38130 ft | 434 kts | 12° |
| 2026-04-25 22:45 | 53.01719 | 11.01493 | 38120 ft | 434 kts | 12° |
| 2026-04-25 22:46 | 53.07444 | 11.04650 | 38120 ft | 434 kts | 12° |
| 2026-04-25 22:46 | 53.13179 | 11.07821 | 38118 ft | 434 kts | 12° |
| 2026-04-25 22:47 | 53.18914 | 11.11002 | 38115 ft | 434 kts | 12° |
| 2026-04-25 22:47 | 53.24645 | 11.14189 | 38029 ft | 435 kts | 12° |
| 2026-04-25 22:48 | 53.27480 | 11.15768 | 37764 ft | 435 kts | 12° |
| 2026-04-25 22:48 | 53.30314 | 11.17351 | 37497 ft | 434 kts | 12° |
| 2026-04-25 22:48 | 53.33190 | 11.18958 | 37252 ft | 435 kts | 12° |
| 2026-04-25 22:48 | 53.36064 | 11.20566 | 37021 ft | 435 kts | 12° |
| 2026-04-25 22:49 | 53.38937 | 11.22176 | 36780 ft | 435 kts | 12° |
| 2026-04-25 22:49 | 53.41815 | 11.23791 | 36548 ft | 436 kts | 12° |
| 2026-04-25 22:49 | 53.44694 | 11.25409 | 36342 ft | 436 kts | 12° |
| 2026-04-25 22:49 | 53.47579 | 11.27032 | 36139 ft | 436 kts | 13° |
| 2026-04-25 22:50 | 53.50415 | 11.28631 | 35947 ft | 436 kts | 13° |
| 2026-04-25 22:50 | 53.53292 | 11.30254 | 35736 ft | 436 kts | 13° |
| 2026-04-25 22:50 | 53.56176 | 11.31883 | 35549 ft | 437 kts | 13° |
| 2026-04-25 22:50 | 53.59063 | 11.33516 | 35348 ft | 437 kts | 13° |
| 2026-04-25 22:51 | 53.61941 | 11.35148 | 35120 ft | 437 kts | 13° |
| 2026-04-25 22:51 | 53.64820 | 11.36782 | 34886 ft | 437 kts | 13° |
| 2026-04-25 22:51 | 53.67700 | 11.38417 | 34638 ft | 437 kts | 13° |
| 2026-04-25 22:51 | 53.70577 | 11.40055 | 34400 ft | 437 kts | 14° |
| 2026-04-25 22:52 | 53.73457 | 11.41696 | 34167 ft | 436 kts | 14° |
| 2026-04-25 22:52 | 53.76333 | 11.43337 | 33898 ft | 437 kts | 14° |
| 2026-04-25 22:52 | 53.79214 | 11.44983 | 33620 ft | 437 kts | 14° |
| 2026-04-25 22:52 | 53.81124 | 11.46076 | 33446 ft | 438 kts | 14° |
| 2026-04-25 22:53 | 53.84977 | 11.48286 | 33084 ft | 433 kts | 14° |
| 2026-04-25 22:53 | 53.87764 | 11.49892 | 32813 ft | 423 kts | 14° |
| 2026-04-25 22:53 | 53.90516 | 11.51481 | 32544 ft | 412 kts | 14° |
| 2026-04-25 22:53 | 53.93203 | 11.53032 | 32285 ft | 402 kts | 14° |
| 2026-04-25 22:54 | 53.95818 | 11.54543 | 32049 ft | 392 kts | 14° |
| 2026-04-25 22:54 | 53.98374 | 11.56020 | 31809 ft | 383 kts | 14° |
| 2026-04-25 22:54 | 54.00861 | 11.57458 | 31575 ft | 373 kts | 14° |
| 2026-04-25 22:54 | 54.03287 | 11.58864 | 31345 ft | 363 kts | 14° |
| 2026-04-25 22:55 | 54.05655 | 11.60238 | 31116 ft | 354 kts | 14° |
| 2026-04-25 22:55 | 54.07966 | 11.61579 | 30883 ft | 348 kts | 14° |
| 2026-04-25 22:55 | 54.10259 | 11.62907 | 30669 ft | 349 kts | 14° |
| 2026-04-25 22:55 | 54.12562 | 11.64241 | 30447 ft | 350 kts | 14° |
| 2026-04-25 22:56 | 54.14836 | 11.65564 | 30232 ft | 348 kts | 14° |
| 2026-04-25 22:56 | 54.17122 | 11.66897 | 29982 ft | 345 kts | 14° |
| 2026-04-25 22:56 | 54.19388 | 11.68220 | 29713 ft | 343 kts | 14° |
| 2026-04-25 22:56 | 54.21647 | 11.69542 | 29472 ft | 342 kts | 14° |
| 2026-04-25 22:57 | 54.23897 | 11.70859 | 29216 ft | 340 kts | 14° |
| 2026-04-25 22:57 | 54.26131 | 11.72168 | 28964 ft | 339 kts | 14° |
| 2026-04-25 22:57 | 54.28358 | 11.73474 | 28718 ft | 338 kts | 14° |
| 2026-04-25 22:57 | 54.30576 | 11.74777 | 28474 ft | 336 kts | 14° |
| 2026-04-25 22:58 | 54.32779 | 11.76073 | 28229 ft | 334 kts | 14° |
| 2026-04-25 22:58 | 54.34948 | 11.77350 | 27982 ft | 333 kts | 14° |
| 2026-04-25 22:58 | 54.37139 | 11.78641 | 27756 ft | 331 kts | 13° |
| 2026-04-25 22:58 | 54.39314 | 11.79905 | 27425 ft | 329 kts | 12° |
| 2026-04-25 22:59 | 54.41492 | 11.81066 | 27013 ft | 326 kts | 11° |
| 2026-04-25 22:59 | 54.43659 | 11.82181 | 26568 ft | 324 kts | 11° |
| 2026-04-25 22:59 | 54.45838 | 11.83300 | 25911 ft | 330 kts | 11° |
| 2026-04-25 22:59 | 54.48067 | 11.84454 | 25133 ft | 340 kts | 11° |
| 2026-04-25 23:00 | 54.50371 | 11.85660 | 24304 ft | 351 kts | 12° |
| 2026-04-25 23:00 | 54.52748 | 11.86913 | 23391 ft | 363 kts | 12° |
| 2026-04-25 23:00 | 54.55160 | 11.88192 | 22472 ft | 371 kts | 12° |
| 2026-04-25 23:00 | 54.57653 | 11.89521 | 21598 ft | 377 kts | 12° |
| 2026-04-25 23:01 | 54.60182 | 11.90871 | 20727 ft | 383 kts | 12° |
| 2026-04-25 23:01 | 54.62747 | 11.92241 | 19881 ft | 387 kts | 12° |
| 2026-04-25 23:01 | 54.65309 | 11.93614 | 19167 ft | 383 kts | 12° |
| 2026-04-25 23:01 | 54.67836 | 11.94971 | 18463 ft | 377 kts | 12° |
| 2026-04-25 23:02 | 54.70277 | 11.96282 | 17691 ft | 372 kts | 12° |
| 2026-04-25 23:02 | 54.72735 | 11.97600 | 16908 ft | 367 kts | 12° |
| 2026-04-25 23:02 | 54.75158 | 11.98899 | 16132 ft | 362 kts | 12° |
| 2026-04-25 23:02 | 54.77554 | 12.00185 | 15435 ft | 357 kts | 12° |
| 2026-04-25 23:03 | 54.79899 | 12.01448 | 14936 ft | 347 kts | 12° |
| 2026-04-25 23:03 | 54.82152 | 12.02665 | 14455 ft | 340 kts | 12° |
| 2026-04-25 23:03 | 54.84386 | 12.03870 | 13974 ft | 332 kts | 12° |
| 2026-04-25 23:03 | 54.86556 | 12.05042 | 13455 ft | 321 kts | 11° |
| 2026-04-25 23:04 | 54.88662 | 12.06179 | 12925 ft | 312 kts | 11° |
| 2026-04-25 23:04 | 54.90051 | 12.06929 | 12589 ft | 307 kts | 12° |
| 2026-04-25 23:04 | 54.92699 | 12.08360 | 11995 ft | 294 kts | 12° |
| 2026-04-25 23:04 | 54.94630 | 12.09407 | 11629 ft | 283 kts | 12° |
| 2026-04-25 23:05 | 54.96463 | 12.10404 | 11376 ft | 269 kts | 11° |
| 2026-04-25 23:05 | 54.98212 | 12.11355 | 11141 ft | 259 kts | 11° |
| 2026-04-25 23:05 | 54.99919 | 12.12278 | 10888 ft | 256 kts | 11° |
| 2026-04-25 23:05 | 55.01621 | 12.13194 | 10654 ft | 255 kts | 11° |
| 2026-04-25 23:06 | 55.03315 | 12.14110 | 10413 ft | 255 kts | 11° |
| 2026-04-25 23:06 | 55.04440 | 12.14720 | 10257 ft | 254 kts | 11° |
| 2026-04-25 23:06 | 55.06645 | 12.15923 | 10020 ft | 244 kts | 12° |
| 2026-04-25 23:06 | 55.08238 | 12.16798 | 9662 ft | 238 kts | 11° |
| 2026-04-25 23:07 | 55.09817 | 12.17660 | 9242 ft | 237 kts | 11° |
| 2026-04-25 23:07 | 55.10859 | 12.18227 | 9029 ft | 236 kts | 11° |
| 2026-04-25 23:07 | 55.12425 | 12.19081 | 8689 ft | 235 kts | 11° |
| 2026-04-25 23:07 | 55.13979 | 12.19930 | 8373 ft | 233 kts | 11° |
| 2026-04-25 23:08 | 55.15535 | 12.20780 | 8072 ft | 235 kts | 12° |
| 2026-04-25 23:08 | 55.17090 | 12.21632 | 7781 ft | 233 kts | 12° |
| 2026-04-25 23:08 | 55.18637 | 12.22482 | 7479 ft | 232 kts | 12° |
| 2026-04-25 23:08 | 55.20167 | 12.23323 | 7182 ft | 230 kts | 12° |
| 2026-04-25 23:09 | 55.21693 | 12.24162 | 6883 ft | 230 kts | 11° |
| 2026-04-25 23:09 | 55.23227 | 12.25004 | 6589 ft | 230 kts | 12° |
| 2026-04-25 23:09 | 55.24754 | 12.25844 | 6273 ft | 229 kts | 12° |
| 2026-04-25 23:09 | 55.26251 | 12.26668 | 5978 ft | 228 kts | 12° |
| 2026-04-25 23:10 | 55.27751 | 12.27496 | 5753 ft | 222 kts | 12° |
| 2026-04-25 23:10 | 55.29164 | 12.28284 | 5601 ft | 208 kts | 12° |
| 2026-04-25 23:10 | 55.30534 | 12.29044 | 5347 ft | 204 kts | 12° |
| 2026-04-25 23:10 | 55.31880 | 12.29785 | 5103 ft | 200 kts | 12° |
| 2026-04-25 23:11 | 55.33187 | 12.30507 | 4867 ft | 195 kts | 12° |
| 2026-04-25 23:11 | 55.34479 | 12.31217 | 4579 ft | 194 kts | 12° |
| 2026-04-25 23:11 | 55.35768 | 12.31926 | 4274 ft | 194 kts | 12° |
| 2026-04-25 23:11 | 55.37061 | 12.32638 | 3990 ft | 194 kts | 13° |
| 2026-04-25 23:12 | 55.38339 | 12.33346 | 3714 ft | 193 kts | 13° |
| 2026-04-25 23:12 | 55.39621 | 12.34057 | 3453 ft | 191 kts | 13° |
| 2026-04-25 23:12 | 55.40890 | 12.34761 | 3389 ft | 196 kts | 13° |
| 2026-04-25 23:12 | 55.42173 | 12.35475 | 3293 ft | 192 kts | 14° |
| 2026-04-25 23:13 | 55.43405 | 12.36424 | 3209 ft | 196 kts | 26° |
| 2026-04-25 23:13 | 55.44539 | 12.37799 | 3042 ft | 197 kts | 34° |
| 2026-04-25 23:13 | 55.45576 | 12.39336 | 2961 ft | 199 kts | 37° |
| 2026-04-25 23:13 | 55.46620 | 12.40945 | 2876 ft | 198 kts | 37° |
| 2026-04-25 23:14 | 55.47652 | 12.42530 | 2785 ft | 192 kts | 36° |
| 2026-04-25 23:14 | 55.48611 | 12.44009 | 2718 ft | 174 kts | 36° |
| 2026-04-25 23:14 | 55.49479 | 12.45344 | 2632 ft | 156 kts | 36° |
| 2026-04-25 23:14 | 55.50272 | 12.46561 | 2473 ft | 151 kts | 35° |
| 2026-04-25 23:15 | 55.51064 | 12.47775 | 2278 ft | 150 kts | 35° |
| 2026-04-25 23:15 | 55.51852 | 12.48988 | 2082 ft | 150 kts | 35° |
| 2026-04-25 23:15 | 55.52638 | 12.50199 | 1880 ft | 150 kts | 35° |
| 2026-04-25 23:15 | 55.53428 | 12.51415 | 1679 ft | 151 kts | 35° |
| 2026-04-25 23:16 | 55.54216 | 12.52631 | 1468 ft | 151 kts | 35° |
| 2026-04-25 23:16 | 55.55003 | 12.53839 | 1239 ft | 148 kts | 35° |
| 2026-04-25 23:16 | 55.55783 | 12.55057 | 1016 ft | 152 kts | 36° |
| 2026-04-25 23:16 | 55.56567 | 12.56276 | 764 ft | 149 kts | 37° |
| 2026-04-25 23:17 | 55.57351 | 12.57469 | 545 ft | 149 kts | 35° |
| 2026-04-25 23:17 | 55.58112 | 12.58633 | 337 ft | 143 kts | 37° |
| 2026-04-25 23:17 | 55.58871 | 12.59823 | 160 ft | 149 kts | 37° |
| 2026-04-25 23:17 | 55.59646 | 12.61003 | 28 ft | 142 kts | 38° |
| 2026-04-25 23:18 | 55.60251 | 12.61941 | 24 ft | 88 kts | 41° |
| 2026-04-25 23:18 | 55.60569 | 12.62434 | 31 ft | 34 kts | 41° |
| 2026-04-25 23:18 | 55.60668 | 12.62585 | 26 ft | 18 kts | 40° |
| 2026-04-25 23:18 | 55.60783 | 12.62740 | 26 ft | 23 kts | 32° |
| 2026-04-25 23:19 | 55.60938 | 12.62852 | 27 ft | 25 kts | 14° |
| 2026-04-25 23:19 | 55.61039 | 12.62889 | 23 ft | 9 kts | 11° |
| 2026-04-25 23:19 | 55.61109 | 12.62917 | 24 ft | 12 kts | 18° |
| 2026-04-25 23:19 | 55.61184 | 12.62998 | 25 ft | 14 kts | 39° |
| 2026-04-25 23:20 | 55.61262 | 12.63124 | 26 ft | 16 kts | 40° |
| 2026-04-25 23:20 | 55.61354 | 12.63264 | 27 ft | 19 kts | 41° |
| 2026-04-25 23:20 | 55.61457 | 12.63426 | 26 ft | 21 kts | 41° |
| 2026-04-25 23:20 | 55.61560 | 12.63582 | 26 ft | 20 kts | 40° |
| 2026-04-25 23:21 | 55.61666 | 12.63748 | 26 ft | 22 kts | 41° |
| 2026-04-25 23:21 | 55.61773 | 12.63914 | 24 ft | 21 kts | 41° |
| 2026-04-25 23:21 | 55.61863 | 12.64053 | 26 ft | 18 kts | 38° |
| 2026-04-25 23:21 | 55.61980 | 12.64159 | 25 ft | 20 kts | 25° |
| 2026-04-25 23:22 | 55.62110 | 12.64269 | 23 ft | 19 kts | 25° |
| 2026-04-25 23:22 | 55.62218 | 12.64356 | 21 ft | 18 kts | 24° |
| 2026-04-25 23:22 | 55.62336 | 12.64421 | 25 ft | 17 kts | 15° |
| 2026-04-25 23:23 | 55.62535 | 12.64376 | 25 ft | 16 kts | 303° |
| 2026-04-25 23:23 | 55.62609 | 12.64267 | 25 ft | 14 kts | 9° |
| 2026-04-25 23:23 | 55.62702 | 12.64337 | 27 ft | 16 kts | 21° |
| 2026-04-25 23:23 | 55.62756 | 12.64388 | 25 ft | 6 kts | 48° |
| 2026-04-25 23:24 | 55.62757 | 12.64459 | 25 ft | 0 kts | 102° |
| 2026-04-25 23:24 | 55.62756 | 12.64470 | 25 ft | 0 kts | 101° |
| 2026-04-25 23:38 | 55.62756 | 12.64465 | -4 ft | 2 kts | 101° |
| 2026-04-25 23:38 | 55.62758 | 12.64445 | 25 ft | 2 kts | 101° |
| 2026-04-25 23:38 | 55.62761 | 12.64425 | 25 ft | 2 kts | 113° |
| 2026-04-25 23:39 | 55.62766 | 12.64408 | 28 ft | 2 kts | 136° |
| 2026-04-25 23:39 | 55.62775 | 12.64396 | 26 ft | 2 kts | 163° |
| 2026-04-25 23:39 | 55.62775 | 12.64394 | 26 ft | 1 kts | 176° |
| 2026-04-25 23:39 | 55.62757 | 12.64387 | 26 ft | 4 kts | 197° |
| 2026-04-25 23:40 | 55.62731 | 12.64364 | 23 ft | 4 kts | 209° |
| 2026-04-25 23:40 | 55.62705 | 12.64341 | 24 ft | 4 kts | 204° |
| 2026-04-25 23:40 | 55.62678 | 12.64320 | 24 ft | 4 kts | 201° |
| 2026-04-25 23:40 | 55.62645 | 12.64296 | 24 ft | 5 kts | 205° |
| 2026-04-25 23:41 | 55.62609 | 12.64266 | 24 ft | 5 kts | 197° |
| 2026-04-25 23:41 | 55.62573 | 12.64280 | 26 ft | 6 kts | 143° |
| 2026-04-25 23:41 | 55.62550 | 12.64336 | 23 ft | 6 kts | 122° |
| 2026-04-25 23:41 | 55.62529 | 12.64394 | 25 ft | 5 kts | 122° |
| 2026-04-25 23:42 | 55.62508 | 12.64452 | 25 ft | 6 kts | 123° |
| 2026-04-25 23:42 | 55.62486 | 12.64510 | 25 ft | 6 kts | 123° |
| 2026-04-25 23:42 | 55.62465 | 12.64568 | 25 ft | 6 kts | 123° |
| 2026-04-25 23:42 | 55.62443 | 12.64626 | 25 ft | 6 kts | 122° |
| 2026-04-25 23:43 | 55.62422 | 12.64685 | 25 ft | 6 kts | 122° |
| 2026-04-25 23:43 | 55.62401 | 12.64743 | 26 ft | 6 kts | 122° |
| 2026-04-25 23:43 | 55.62380 | 12.64801 | 25 ft | 6 kts | 124° |
| 2026-04-25 23:43 | 55.62358 | 12.64858 | 26 ft | 5 kts | 124° |
| 2026-04-25 23:44 | 55.62336 | 12.64917 | 25 ft | 6 kts | 123° |
| 2026-04-25 23:44 | 55.62315 | 12.64975 | 26 ft | 6 kts | 123° |
| 2026-04-25 23:44 | 55.62293 | 12.65033 | 26 ft | 5 kts | 123° |
| 2026-04-25 23:44 | 55.62278 | 12.65096 | 23 ft | 6 kts | 101° |
| 2026-04-25 23:45 | 55.62286 | 12.65162 | 23 ft | 5 kts | 63° |
| 2026-04-25 23:45 | 55.62317 | 12.65201 | 24 ft | 5 kts | 13° |
| 2026-04-25 23:45 | 55.62356 | 12.65203 | 23 ft | 6 kts | 359° |
| 2026-04-25 23:45 | 55.62395 | 12.65202 | 25 ft | 5 kts | 2° |
| 2026-04-25 23:46 | 55.62430 | 12.65230 | 23 ft | 6 kts | 47° |
| 2026-04-25 23:46 | 55.62440 | 12.65295 | 24 ft | 6 kts | 85° |
| 2026-04-25 23:46 | 55.62442 | 12.65364 | 23 ft | 5 kts | 89° |
| 2026-04-25 23:46 | 55.62442 | 12.65434 | 25 ft | 5 kts | 89° |
| 2026-04-25 23:47 | 55.62443 | 12.65503 | 27 ft | 5 kts | 89° |
| 2026-04-25 23:47 | 55.62444 | 12.65573 | 24 ft | 6 kts | 87° |
| 2026-04-25 23:47 | 55.62445 | 12.65642 | 27 ft | 6 kts | 89° |
| 2026-04-25 23:47 | 55.62445 | 12.65688 | 25 ft | 6 kts | 89° |
| 2026-04-25 23:48 | 55.62447 | 12.65781 | 27 ft | 6 kts | 89° |
| 2026-04-25 23:48 | 55.62447 | 12.65850 | 25 ft | 6 kts | 89° |
| 2026-04-25 23:48 | 55.62448 | 12.65919 | 23 ft | 6 kts | 89° |
| 2026-04-25 23:48 | 55.62453 | 12.65987 | 23 ft | 6 kts | 72° |
| 2026-04-25 23:49 | 55.62475 | 12.66044 | 26 ft | 6 kts | 43° |
| 2026-04-25 23:49 | 55.62504 | 12.66090 | 23 ft | 6 kts | 41° |
| 2026-04-25 23:49 | 55.62537 | 12.66128 | 26 ft | 6 kts | 20° |
| 2026-04-25 23:49 | 55.62576 | 12.66134 | 23 ft | 6 kts | 358° |
| 2026-04-25 23:50 | 55.62615 | 12.66133 | 24 ft | 5 kts | 6° |
| 2026-04-25 23:50 | 55.62650 | 12.66163 | 25 ft | 5 kts | 35° |
| 2026-04-25 23:50 | 55.62682 | 12.66211 | 24 ft | 7 kts | 40° |
| 2026-04-25 23:50 | 55.62719 | 12.66270 | 27 ft | 7 kts | 44° |
| 2026-04-25 23:51 | 55.62757 | 12.66330 | 23 ft | 7 kts | 42° |
| 2026-04-25 23:51 | 55.62796 | 12.66391 | 23 ft | 8 kts | 40° |
| 2026-04-25 23:51 | 55.62844 | 12.66464 | 23 ft | 9 kts | 41° |
| 2026-04-25 23:51 | 55.62893 | 12.66541 | 26 ft | 9 kts | 41° |
| 2026-04-25 23:52 | 55.62940 | 12.66588 | 23 ft | 7 kts | 6° |
| 2026-04-25 23:52 | 55.62983 | 12.66545 | 23 ft | 7 kts | 315° |
| 2026-04-25 23:52 | 55.63018 | 12.66478 | 23 ft | 7 kts | 312° |
| 2026-04-25 23:52 | 55.63056 | 12.66403 | 23 ft | 9 kts | 310° |
| 2026-04-25 23:53 | 55.63076 | 12.66350 | 26 ft | 7 kts | 293° |
| 2026-04-25 23:53 | 55.63064 | 12.66268 | 26 ft | 7 kts | 229° |
| 2026-04-25 23:53 | 55.63026 | 12.66206 | 23 ft | 7 kts | 221° |
| 2026-04-25 23:53 | 55.63023 | 12.66202 | 23 ft | 1 kts | 221° |
| 2026-04-25 23:54 | 55.63028 | 12.66209 | 23 ft | 1 kts | 226° |
| 2026-04-25 23:54 | 55.63032 | 12.66217 | 23 ft | 1 kts | 243° |
| 2026-04-25 23:54 | 55.63035 | 12.66227 | 24 ft | 1 kts | 272° |
| 2026-04-25 23:54 | 55.63033 | 12.66242 | 24 ft | 0 kts | 307° |
| 2026-04-25 23:55 | 55.63031 | 12.66247 | 24 ft | 1 kts | 306° |
| 2026-04-25 23:55 | 55.63028 | 12.66254 | 24 ft | 1 kts | 308° |
| 2026-04-25 23:55 | 55.63025 | 12.66261 | 25 ft | 1 kts | 307° |
| 2026-04-25 23:55 | 55.63022 | 12.66267 | 26 ft | 1 kts | 306° |
| 2026-04-25 23:56 | 55.63019 | 12.66274 | 25 ft | 1 kts | 308° |
| 2026-04-25 23:56 | 55.63017 | 12.66281 | 25 ft | 1 kts | 310° |
| 2026-04-25 23:56 | 55.63013 | 12.66288 | 25 ft | 1 kts | 310° |
| 2026-04-25 23:56 | 55.63010 | 12.66294 | 28 ft | 1 kts | 310° |
| 2026-04-25 23:57 | 55.63007 | 12.66300 | 28 ft | 1 kts | 310° |
| 2026-04-25 23:57 | 55.63004 | 12.66307 | 26 ft | 1 kts | 310° |
| 2026-04-25 23:57 | 55.63001 | 12.66313 | 26 ft | 1 kts | 310° |
| 2026-04-25 23:57 | 55.62998 | 12.66320 | 28 ft | 1 kts | 310° |
| 2026-04-25 23:58 | 55.62995 | 12.66326 | 28 ft | 1 kts | 310° |